Time;durP1;ratioP1;P1;durP2;ratioP2;P2;SDS_P1;SDS_P2;PMS_P1;PMS_P2;Temp;Humidity;BMP_temperature;BMP_pressure;BME280_temperature;BME280_humidity;BME280_pressure;Samples;Min_cycle;Max_cycle;Signal;HPM_P1;HPM_P2
2022/01/30 00:02:17;;;;;;;27.30;4.68;;;;;;;5.27;100.00;100628.41;4927619;29;20035;-91
2022/01/30 00:04:43;;;;;;;19.42;4.25;;;;;;;5.34;100.00;100612.31;4910438;29;20047;-91
2022/01/30 00:07:09;;;;;;;27.67;5.30;;;;;;;5.17;100.00;100577.19;4919124;29;20032;-91
2022/01/30 00:09:36;;;;;;;33.50;5.30;;;;;;;5.19;100.00;100625.59;4940466;29;20031;-92
2022/01/30 00:12:04;;;;;;;31.75;6.07;;;;;;;5.27;100.00;100615.38;4929936;28;20070;-91
2022/01/30 00:14:34;;;;;;;32.20;5.53;;;;;;;5.14;100.00;100618.13;4946508;29;20079;-91
2022/01/30 00:17:12;;;;;;;30.23;5.97;;;;;;;5.17;100.00;100600.59;4916223;29;20091;-90
2022/01/30 00:19:43;;;;;;;27.65;4.78;;;;;;;5.21;100.00;100602.84;4916446;29;20031;-89
2022/01/30 00:23:01;;;;;;;31.23;5.68;;;;;;;5.07;100.00;100613.50;4932174;29;20062;-90
2022/01/30 00:25:04;;;;;;;25.15;4.85;;;;;;;5.10;100.00;100615.88;4921219;29;20058;-91
2022/01/30 00:27:31;;;;;;;27.13;6.63;;;;;;;5.10;100.00;100605.47;4921158;29;20493;-89
2022/01/30 00:29:57;;;;;;;31.40;5.25;;;;;;;5.10;100.00;100615.88;4921951;29;20032;-90
2022/01/30 00:32:24;;;;;;;23.88;4.18;;;;;;;5.05;100.00;100628.44;4934014;29;20019;-91
2022/01/30 00:34:50;;;;;;;25.48;4.97;;;;;;;5.01;100.00;100643.44;4931853;29;20046;-90
2022/01/30 00:37:16;;;;;;;37.00;5.82;;;;;;;5.00;100.00;100647.84;4918781;29;20039;-91
2022/01/30 00:39:43;;;;;;;38.85;5.35;;;;;;;5.14;100.00;100648.56;4935152;29;20054;-90
2022/01/30 00:42:09;;;;;;;37.15;6.43;;;;;;;4.91;100.00;100638.13;4933694;29;20066;-90
2022/01/30 00:44:34;;;;;;;26.58;4.90;;;;;;;4.81;100.00;100637.19;4934645;29;20043;-89
2022/01/30 00:47:03;;;;;;;23.92;5.70;;;;;;;4.93;100.00;100631.06;4934291;29;20138;-90
2022/01/30 00:49:30;;;;;;;34.35;5.13;;;;;;;4.82;100.00;100605.84;4921561;29;20513;-89
2022/01/30 00:51:56;;;;;;;31.50;5.10;;;;;;;4.87;100.00;100592.47;4931447;29;20036;-90
2022/01/30 00:54:22;;;;;;;23.27;5.03;;;;;;;4.85;100.00;100599.56;4923545;29;20039;-91
2022/01/30 00:56:47;;;;;;;27.77;5.43;;;;;;;4.78;100.00;100611.41;4945275;29;20063;-90
2022/01/30 00:59:13;;;;;;;27.38;4.25;;;;;;;4.76;100.00;100639.31;4929279;29;20059;-90
2022/01/30 01:01:38;;;;;;;20.75;4.65;;;;;;;4.75;100.00;100632.47;4928894;29;20067;-89
2022/01/30 01:04:04;;;;;;;30.30;6.25;;;;;;;5.02;100.00;100645.13;4931354;29;20124;-92
2022/01/30 01:06:30;;;;;;;33.88;4.97;;;;;;;4.82;100.00;100650.09;4943979;29;20042;-90
2022/01/30 01:09:02;;;;;;;27.17;4.95;;;;;;;4.84;100.00;100652.56;4922642;29;20091;-90
2022/01/30 01:25:10;;;;;;;26.25;5.47;;;;;;;4.55;100.00;100621.78;4932955;29;20031;-90
2022/01/30 01:27:36;;;;;;;27.98;4.80;;;;;;;4.47;100.00;100624.97;4920309;29;20111;-89
2022/01/30 01:30:02;;;;;;;30.70;4.05;;;;;;;4.65;100.00;100622.72;4928514;29;20448;-90
2022/01/30 01:32:28;;;;;;;24.42;3.35;;;;;;;4.50;100.00;100618.69;4929978;29;20027;-90
2022/01/30 01:34:54;;;;;;;19.98;4.35;;;;;;;4.55;100.00;100637.41;4912789;29;20040;-91
2022/01/30 01:37:20;;;;;;;30.70;4.30;;;;;;;4.66;100.00;100639.19;4917834;29;20028;-90
2022/01/30 01:39:45;;;;;;;20.02;3.72;;;;;;;4.71;100.00;100653.47;4928589;29;20046;-91
2022/01/30 01:42:11;;;;;;;19.52;3.88;;;;;;;4.70;100.00;100659.63;4918113;29;20055;-89
2022/01/30 01:44:43;;;;;;;13.90;3.38;;;;;;;4.80;100.00;100669.34;4910498;29;20470;-91
2022/01/30 01:47:10;;;;;;;20.98;3.88;;;;;;;4.79;100.00;100676.31;4918971;29;20478;-90
2022/01/30 01:49:36;;;;;;;16.58;3.40;;;;;;;4.65;100.00;100659.16;4923300;29;20031;-91
2022/01/30 01:52:26;;;;;;;28.05;4.22;;;;;;;4.75;100.00;100663.66;4924826;29;20031;-90
2022/01/30 01:54:52;;;;;;;21.60;3.60;;;;;;;4.66;100.00;100640.00;4934179;29;20062;-90
2022/01/30 01:57:18;;;;;;;26.55;4.75;;;;;;;4.71;100.00;100643.06;4915114;29;20114;-90
2022/01/30 01:59:45;;;;;;;19.92;3.40;;;;;;;4.60;100.00;100639.63;4921161;29;20054;-90
2022/01/30 02:02:11;;;;;;;23.60;3.90;;;;;;;4.63;100.00;100629.84;4918837;29;20189;-90
2022/01/30 02:04:39;;;;;;;30.35;4.00;;;;;;;4.69;100.00;100650.16;4925006;29;20127;-91
2022/01/30 02:09:43;;;;;;;23.25;4.13;;;;;;;4.71;100.00;100656.06;4928154;29;20042;-90
2022/01/30 02:12:18;;;;;;;29.23;3.42;;;;;;;4.60;100.00;100663.03;4918910;29;20067;-88
2022/01/30 02:15:03;;;;;;;26.38;5.35;;;;;;;4.65;100.00;100664.34;4925614;29;20043;-88
2022/01/30 02:25:57;;;;;;;19.63;3.65;;;;;;;4.54;100.00;100661.75;4928292;29;20042;-89
2022/01/30 02:28:24;;;;;;;21.33;4.18;;;;;;;4.53;100.00;100673.09;4908388;29;20414;-92
2022/01/30 02:31:01;;;;;;;22.85;3.40;;;;;;;4.48;100.00;100647.44;4906663;29;20038;-89
2022/01/30 02:33:27;;;;;;;23.33;3.67;;;;;;;4.63;100.00;100657.63;4915627;29;20045;-91
2022/01/30 02:35:53;;;;;;;19.85;3.33;;;;;;;4.47;100.00;100645.78;4920855;29;20035;-90
2022/01/30 02:38:21;;;;;;;20.17;3.20;;;;;;;4.59;100.00;100657.03;4916167;29;20126;-89
2022/01/30 02:40:49;;;;;;;20.58;3.28;;;;;;;4.62;100.00;100648.97;4923036;29;20031;-90
2022/01/30 02:43:17;;;;;;;18.77;3.30;;;;;;;4.75;100.00;100658.47;4916930;29;20039;-92
2022/01/30 02:45:49;;;;;;;19.13;3.45;;;;;;;4.69;100.00;100655.38;4915042;29;20037;-87
2022/01/30 02:48:19;;;;;;;17.02;3.40;;;;;;;4.81;100.00;100678.81;4911992;29;20043;-92
2022/01/30 02:53:13;;;;;;;23.92;4.00;;;;;;;4.80;100.00;100671.94;4949539;29;20047;-88
2022/01/30 02:55:39;;;;;;;20.48;3.80;;;;;;;4.50;100.00;100640.34;4917984;29;20063;-89
2022/01/30 02:58:05;;;;;;;18.58;3.33;;;;;;;4.57;100.00;100630.31;4927742;29;20056;-88
2022/01/30 03:00:31;;;;;;;21.80;3.88;;;;;;;4.50;100.00;100639.50;4932687;29;20042;-88
2022/01/30 03:02:57;;;;;;;13.70;2.85;;;;;;;4.63;100.00;100632.44;4916765;29;20075;-88
2022/01/30 03:05:23;;;;;;;21.65;3.65;;;;;;;4.56;100.00;100645.06;4915532;29;20063;-89
2022/01/30 03:07:48;;;;;;;26.20;4.28;;;;;;;4.79;100.00;100676.31;4930712;29;20042;-89
2022/01/30 03:10:14;;;;;;;20.95;3.97;;;;;;;4.74;100.00;100677.63;4935700;29;20036;-89
2022/01/30 03:12:41;;;;;;;22.33;3.10;;;;;;;4.80;100.00;100671.94;4941628;29;20091;-87
2022/01/30 03:15:08;;;;;;;20.95;2.72;;;;;;;5.09;100.00;100677.53;4923966;29;20051;-89
2022/01/30 03:17:33;;;;;;;14.23;2.70;;;;;;;4.85;100.00;100695.84;4947588;29;20143;-89
2022/01/30 03:19:59;;;;;;;18.55;3.92;;;;;;;4.85;100.00;100675.03;4909259;29;20062;-88
2022/01/30 03:22:26;;;;;;;21.58;3.50;;;;;;;4.97;100.00;100668.91;4908689;29;20032;-90
2022/01/30 03:24:52;;;;;;;15.98;3.00;;;;;;;4.95;100.00;100654.34;4915441;29;20028;-90
2022/01/30 03:27:18;;;;;;;21.10;3.53;;;;;;;4.88;100.00;100645.34;4908987;29;20034;-89
2022/01/30 03:29:51;;;;;;;13.80;3.33;;;;;;;5.14;100.00;100666.78;4908767;29;20043;-88
2022/01/30 03:32:17;;;;;;;21.90;5.32;;;;;;;5.23;100.00;100653.03;4913429;29;20116;-87
2022/01/30 03:34:48;;;;;;;23.60;3.10;;;;;;;5.16;100.00;100646.66;4919343;29;20036;-88
2022/01/30 03:37:14;;;;;;;14.70;3.13;;;;;;;4.97;100.00;100666.28;4910714;29;20043;-88
2022/01/30 03:39:43;;;;;;;15.55;3.80;;;;;;;5.17;100.00;100658.72;4909809;29;20094;-90
2022/01/30 03:42:09;;;;;;;14.88;3.15;;;;;;;5.19;100.00;100641.19;4924644;29;20075;-89
2022/01/30 03:44:35;;;;;;;22.13;3.70;;;;;;;5.32;100.00;100651.47;4908986;29;20030;-88
2022/01/30 03:47:03;;;;;;;18.40;3.47;;;;;;;5.43;100.00;100648.03;4918275;29;20098;-91
2022/01/30 03:49:33;;;;;;;15.45;2.78;;;;;;;5.48;100.00;100652.88;4909394;29;20437;-89
2022/01/30 03:52:01;;;;;;;13.25;2.95;;;;;;;5.37;100.00;100644.13;4907942;29;20035;-89
2022/01/30 03:54:28;;;;;;;13.23;3.20;;;;;;;5.40;100.00;100651.72;4908653;29;20094;-87
2022/01/30 03:56:54;;;;;;;11.20;2.63;;;;;;;5.17;100.00;100635.28;4925428;29;20043;-90
2022/01/30 03:59:20;;;;;;;11.23;2.35;;;;;;;5.22;100.00;100635.75;4911738;29;20039;-90
2022/01/30 04:01:46;;;;;;;13.00;2.88;;;;;;;5.17;100.00;100621.44;4914224;29;20059;-88
2022/01/30 04:04:12;;;;;;;16.35;3.45;;;;;;;5.09;100.00;100622.03;4910887;29;20039;-89
2022/01/30 04:06:38;;;;;;;12.77;3.00;;;;;;;4.85;100.00;100626.44;4911738;29;20036;-90
2022/01/30 04:09:08;;;;;;;12.25;2.65;;;;;;;4.93;100.00;100625.84;4912713;29;20087;-89
2022/01/30 04:11:34;;;;;;;16.08;2.33;;;;;;;4.95;100.00;100649.97;4914053;29;20028;-88
2022/01/30 04:14:00;;;;;;;11.48;2.70;;;;;;;4.88;100.00;100637.53;4925928;29;20039;-88
2022/01/30 04:16:26;;;;;;;16.40;2.55;;;;;;;4.80;100.00;100630.31;4920652;29;20371;-89
2022/01/30 04:18:52;;;;;;;17.65;2.90;;;;;;;4.82;100.00;100623.22;4924204;29;20019;-90
2022/01/30 04:21:17;;;;;;;16.95;2.65;;;;;;;4.85;100.00;100647.25;4930485;29;20128;-89
2022/01/30 04:23:46;;;;;;;11.45;2.80;;;;;;;4.81;100.00;100647.59;4912455;29;20039;-91
2022/01/30 04:26:12;;;;;;;17.67;2.67;;;;;;;4.75;100.00;100648.88;4915493;29;20493;-88
2022/01/30 04:28:38;;;;;;;14.05;3.17;;;;;;;4.83;100.00;100640.50;4914811;29;20019;-90
2022/01/30 04:31:04;;;;;;;14.13;2.53;;;;;;;4.78;100.00;100647.81;4915970;29;20079;-90
2022/01/30 04:33:30;;;;;;;18.05;3.30;;;;;;;4.70;100.00;100641.41;4919410;29;20036;-88
2022/01/30 04:36:01;;;;;;;17.25;2.17;;;;;;;4.67;100.00;100631.25;4918716;29;20040;-89
2022/01/30 04:38:43;;;;;;;13.98;2.72;;;;;;;4.82;100.00;100650.09;4932777;29;20055;-89
2022/01/30 04:52:47;;;;;;;16.80;2.67;;;;;;;4.70;100.00;100664.00;4949144;29;20039;-90
2022/01/30 04:56:05;;;;;;;17.60;2.28;;;;;;;4.70;100.00;100669.22;4930336;29;20397;-88
2022/01/30 05:01:19;;;;;;;11.32;2.15;;;;;;;4.79;100.00;100691.09;4864820;29;20041;-88
2022/01/30 05:06:17;;;;;;;19.75;2.58;;;;;;;4.89;100.00;100686.84;4934114;29;20046;-90
2022/01/30 05:08:43;;;;;;;10.85;2.70;;;;;;;4.83;100.00;100661.31;4923845;29;20072;-87
2022/01/30 05:11:10;;;;;;;12.90;2.58;;;;;;;4.84;100.00;100649.94;4915386;29;20043;-90
2022/01/30 05:13:42;;;;;;;12.57;2.13;;;;;;;4.87;100.00;100652.31;4909187;29;20039;-91
2022/01/30 05:16:09;;;;;;;17.67;3.10;;;;;;;4.82;100.00;100676.09;4926115;29;20035;-89
2022/01/30 05:18:35;;;;;;;11.73;2.40;;;;;;;4.84;100.00;100665.56;4930535;29;20108;-89
2022/01/30 05:21:03;;;;;;;13.75;2.50;;;;;;;4.95;100.00;100676.00;4920881;29;20122;-90
2022/01/30 05:23:29;;;;;;;12.65;3.78;;;;;;;4.99;100.00;100695.63;4924027;29;20039;-89
2022/01/30 05:25:55;;;;;;;10.45;2.50;;;;;;;4.97;100.00;100686.28;4911801;29;20123;-90
2022/01/30 05:28:22;;;;;;;12.60;2.80;;;;;;;4.97;100.00;100686.28;4920833;29;20048;-91
2022/01/30 05:30:48;;;;;;;16.10;2.10;;;;;;;4.98;100.00;100686.16;4921357;29;20035;-90
2022/01/30 05:33:14;;;;;;;14.25;2.20;;;;;;;5.03;100.00;100675.41;4909286;29;20087;-88
2022/01/30 05:35:40;;;;;;;8.25;1.92;;;;;;;5.06;100.00;100682.13;4914729;29;20043;-89
2022/01/30 05:38:06;;;;;;;12.40;2.40;;;;;;;4.81;100.00;100665.81;4916286;29;20123;-89
2022/01/30 05:40:35;;;;;;;7.00;1.92;;;;;;;4.99;100.00;100677.41;4915315;29;20105;-89
2022/01/30 05:43:02;;;;;;;11.13;2.80;;;;;;;4.91;100.00;100664.13;4913701;29;20545;-88
2022/01/30 05:45:38;;;;;;;11.93;2.00;;;;;;;5.04;100.00;100678.81;4933558;29;20413;-90
2022/01/30 05:48:10;;;;;;;19.98;2.60;;;;;;;4.91;100.00;100661.53;4914705;29;20419;-91
2022/01/30 05:50:36;;;;;;;14.63;3.28;;;;;;;4.85;100.00;100652.44;4915773;29;20039;-89
2022/01/30 05:53:02;;;;;;;14.05;2.78;;;;;;;4.79;100.00;100665.91;4924493;29;20036;-90
2022/01/30 05:55:30;;;;;;;8.80;2.40;;;;;;;4.83;100.00;100672.56;4920438;29;20031;-90
2022/01/30 05:57:56;;;;;;;10.05;1.67;;;;;;;4.81;100.00;100668.41;4917376;29;20027;-89
2022/01/30 06:00:22;;;;;;;16.85;2.65;;;;;;;4.74;100.00;100662.03;4905988;29;20035;-89
2022/01/30 06:02:48;;;;;;;6.85;1.85;;;;;;;4.74;100.00;100662.81;4932952;29;20094;-89
2022/01/30 06:05:16;;;;;;;13.30;2.30;;;;;;;4.74;100.00;100668.03;4919244;29;20073;-90
2022/01/30 06:07:52;;;;;;;12.95;2.40;;;;;;;4.65;100.00;100666.94;4934198;29;20032;-90
2022/01/30 06:10:21;;;;;;;18.70;2.60;;;;;;;4.73;100.00;100697.59;4926882;29;20083;-89
2022/01/30 06:12:46;;;;;;;12.73;2.03;;;;;;;4.55;100.00;100679.00;4918020;29;20040;-89
2022/01/30 06:15:13;;;;;;;15.18;2.00;;;;;;;4.55;100.00;100679.81;4917721;29;20060;-89
2022/01/30 06:17:41;;;;;;;13.18;3.03;;;;;;;4.63;100.00;100676.66;4915708;29;20019;-89
2022/01/30 06:20:07;;;;;;;9.38;2.13;;;;;;;4.56;100.00;100665.88;4915184;29;20077;-88
2022/01/30 06:22:33;;;;;;;11.68;2.42;;;;;;;4.61;100.00;100664.69;4923638;29;20126;-88
2022/01/30 06:24:58;;;;;;;10.00;3.05;;;;;;;4.77;100.00;100672.19;4911800;29;20087;-90
2022/01/30 06:27:25;;;;;;;13.88;2.35;;;;;;;4.84;100.00;100678.56;4914644;29;20114;-88
2022/01/30 06:29:50;;;;;;;10.65;2.42;;;;;;;4.85;100.00;100664.63;4914190;29;20039;-89
2022/01/30 06:32:16;;;;;;;11.50;2.17;;;;;;;4.89;100.00;100679.03;4911759;29;20062;-88
2022/01/30 06:34:43;;;;;;;8.35;2.08;;;;;;;4.99;100.00;100677.41;4917888;29;20064;-89
2022/01/30 06:37:08;;;;;;;16.85;2.47;;;;;;;5.09;100.00;100671.47;4923292;29;20043;-89
2022/01/30 06:39:34;;;;;;;8.68;1.98;;;;;;;5.18;100.00;100673.38;4920905;29;20434;-89
2022/01/30 06:41:59;;;;;;;9.45;2.38;;;;;;;5.05;100.00;100664.88;4911696;29;20077;-91
2022/01/30 06:44:25;;;;;;;10.43;2.00;;;;;;;5.11;100.00;100669.59;4927791;29;20035;-88
2022/01/30 06:46:50;;;;;;;16.05;2.03;;;;;;;5.07;100.00;100663.81;4917559;29;20059;-89
2022/01/30 06:49:17;;;;;;;11.85;2.38;;;;;;;5.05;100.00;100665.72;4921226;29;20387;-91
2022/01/30 06:51:43;;;;;;;8.30;1.67;;;;;;;4.99;100.00;100682.63;4929332;29;20167;-91
2022/01/30 06:54:08;;;;;;;8.13;1.80;;;;;;;4.89;100.00;100676.44;4929429;29;20047;-90
2022/01/30 06:56:34;;;;;;;15.32;2.38;;;;;;;4.76;100.00;100666.13;4929223;29;20038;-90
2022/01/30 06:58:59;;;;;;;13.93;1.92;;;;;;;4.71;100.00;100686.47;4929188;28;20169;-92
2022/01/30 07:01:26;;;;;;;6.22;2.08;;;;;;;4.57;100.00;100679.72;4929358;29;20066;-90
2022/01/30 07:03:52;;;;;;;14.80;2.53;;;;;;;4.56;100.00;100685.88;4930119;29;20402;-89
2022/01/30 07:06:19;;;;;;;13.38;2.53;;;;;;;4.38;100.00;100678.47;4921375;29;20032;-90
2022/01/30 07:08:44;;;;;;;12.63;3.25;;;;;;;4.33;100.00;100680.59;4911999;29;20040;-89
2022/01/30 07:11:10;;;;;;;10.57;1.92;;;;;;;4.38;100.00;100696.69;4911258;29;20044;-89
2022/01/30 07:13:36;;;;;;;15.05;2.38;;;;;;;4.39;100.00;100690.53;4910531;29;20028;-89
2022/01/30 07:16:01;;;;;;;12.80;2.60;;;;;;;4.32;100.00;100688.50;4911396;29;20036;-91
2022/01/30 07:18:27;;;;;;;12.98;2.30;;;;;;;4.34;100.00;100708.25;4910456;29;20055;-90
2022/01/30 07:20:53;;;;;;;12.88;2.88;;;;;;;4.22;100.00;100688.34;4911144;29;20039;-90
2022/01/30 07:23:18;;;;;;;12.68;2.45;;;;;;;4.22;100.00;100698.75;4910900;29;20035;-90
2022/01/30 07:25:44;;;;;;;14.07;3.13;;;;;;;4.08;100.00;100679.78;4910710;29;20118;-89
2022/01/30 07:28:10;;;;;;;19.90;2.40;;;;;;;4.08;100.00;100684.97;4910220;29;20035;-90
2022/01/30 07:30:36;;;;;;;18.02;3.00;;;;;;;4.06;100.00;100673.88;4910516;29;20043;-89
2022/01/30 07:33:05;;;;;;;10.93;2.33;;;;;;;4.04;100.00;100675.75;4909887;29;20020;-90
2022/01/30 07:35:33;;;;;;;9.35;2.47;;;;;;;3.93;100.00;100660.09;4908782;29;20031;-92
2022/01/30 07:37:59;;;;;;;17.63;4.30;;;;;;;3.88;100.00;100672.59;4929839;29;20027;-90
2022/01/30 07:40:25;;;;;;;10.90;2.30;;;;;;;3.81;100.00;100665.25;4933874;29;20450;-90
2022/01/30 07:42:51;;;;;;;12.82;2.60;;;;;;;3.81;100.00;100680.84;4928887;29;20066;-90
2022/01/30 07:45:17;;;;;;;9.80;2.20;;;;;;;3.64;100.00;100678.59;4930281;29;20084;-90
2022/01/30 07:47:43;;;;;;;19.23;2.90;;;;;;;3.76;100.00;100688.13;4929810;29;20043;-91
2022/01/30 07:50:09;;;;;;;13.73;2.10;;;;;;;3.78;100.00;100690.59;4912330;29;20126;-90
2022/01/30 07:52:35;;;;;;;10.68;2.65;;;;;;;3.63;100.00;100676.94;4911796;29;20047;-90
2022/01/30 07:55:00;;;;;;;19.50;3.03;;;;;;;3.76;100.00;100676.91;4911132;29;20070;-90
2022/01/30 07:57:26;;;;;;;12.20;2.30;;;;;;;3.70;100.00;100683.34;4911537;29;20054;-89
2022/01/30 07:59:52;;;;;;;9.25;2.05;;;;;;;3.75;100.00;100675.25;4910987;29;20040;-89
2022/01/30 08:02:17;;;;;;;6.05;1.90;;;;;;;3.82;100.00;100674.69;4910073;29;20079;-89
2022/01/30 08:04:43;;;;;;;16.17;2.90;;;;;;;3.84;100.00;100670.22;4910443;29;20031;-90
2022/01/30 08:07:08;;;;;;;10.60;2.03;;;;;;;3.73;100.00;100672.75;4910479;29;20118;-90
2022/01/30 08:09:34;;;;;;;15.35;2.53;;;;;;;3.75;100.00;100681.28;4910507;29;20032;-89
2022/01/30 08:12:00;;;;;;;8.75;1.88;;;;;;;3.72;100.00;100681.47;4910459;29;20095;-90
2022/01/30 08:14:25;;;;;;;14.73;3.22;;;;;;;3.81;100.00;100680.00;4910654;29;20061;-89
2022/01/30 08:16:51;;;;;;;16.13;2.63;;;;;;;3.81;100.00;100664.41;4910437;29;20043;-90
2022/01/30 08:19:18;;;;;;;15.98;2.22;;;;;;;3.90;100.00;100663.75;4910228;29;20068;-91
2022/01/30 08:21:44;;;;;;;13.35;2.75;;;;;;;3.83;100.00;100663.38;4910470;29;20079;-89
2022/01/30 08:24:10;;;;;;;14.63;2.70;;;;;;;3.84;100.00;100659.03;4927698;29;20032;-90
2022/01/30 08:26:36;;;;;;;14.85;2.00;;;;;;;4.04;100.00;100674.94;4913545;29;20047;-89
2022/01/30 08:29:02;;;;;;;14.05;2.78;;;;;;;4.05;100.00;100682.59;4913067;29;20055;-90
2022/01/30 08:31:27;;;;;;;12.93;2.20;;;;;;;4.07;100.00;100679.91;4912439;29;20103;-89
2022/01/30 08:33:55;;;;;;;9.85;2.40;;;;;;;4.17;100.00;100674.88;4913604;29;20137;-89
2022/01/30 08:36:20;;;;;;;18.90;3.10;;;;;;;4.30;100.00;100686.00;4913865;29;20449;-89
2022/01/30 08:38:47;;;;;;;9.02;2.20;;;;;;;4.32;100.00;100673.72;4930400;29;20505;-90
2022/01/30 08:41:13;;;;;;;10.18;2.30;;;;;;;4.36;100.00;100669.13;4921778;29;20482;-87
2022/01/30 08:43:39;;;;;;;10.27;1.85;;;;;;;4.53;100.00;100668.72;4936387;29;20058;-87
2022/01/30 08:46:05;;;;;;;8.55;1.88;;;;;;;4.43;100.00;100673.75;4925667;29;20035;-87
2022/01/30 08:48:32;;;;;;;15.18;2.38;;;;;;;4.48;100.00;100664.78;4918750;29;20031;-87
2022/01/30 08:50:58;;;;;;;10.48;2.03;;;;;;;4.48;100.00;100673.44;4930219;29;20039;-89
2022/01/30 08:53:24;;;;;;;14.90;2.50;;;;;;;4.57;100.00;100675.31;4926195;29;20066;-84
2022/01/30 08:55:50;;;;;;;15.40;2.75;;;;;;;4.57;100.00;100646.72;4929078;29;20031;-86
2022/01/30 08:58:16;;;;;;;13.35;2.13;;;;;;;4.76;100.00;100654.91;4929928;29;20043;-85
2022/01/30 09:00:43;;;;;;;13.30;2.17;;;;;;;4.84;100.00;100648.19;4937520;29;20032;-86
2022/01/30 09:03:09;;;;;;;14.25;1.92;;;;;;;4.78;100.00;100655.63;4947737;29;20050;-85
2022/01/30 09:05:36;;;;;;;10.48;2.00;;;;;;;4.84;100.00;100636.94;4929586;29;20453;-86
2022/01/30 09:08:07;;;;;;;10.57;1.90;;;;;;;4.98;100.00;100652.34;4929279;29;20023;-85
2022/01/30 09:10:35;;;;;;;16.67;2.40;;;;;;;4.83;100.00;100645.69;4929692;29;20067;-85
2022/01/30 09:13:01;;;;;;;10.32;1.85;;;;;;;5.03;100.00;100640.72;4930376;29;20034;-84
2022/01/30 09:15:27;;;;;;;9.55;2.20;;;;;;;5.08;100.00;100654.22;4930947;29;20059;-84
2022/01/30 09:17:53;;;;;;;9.45;2.13;;;;;;;5.11;100.00;100659.19;4939983;29;20077;-83
2022/01/30 09:20:19;;;;;;;10.90;2.22;;;;;;;5.06;100.00;100653.50;4906463;29;20027;-83
2022/01/30 09:22:45;;;;;;;17.20;2.33;;;;;;;5.18;100.00;100654.31;4946703;29;20032;-83
2022/01/30 09:25:11;;;;;;;18.48;2.50;;;;;;;5.32;100.00;100658.47;4937882;29;20039;-83
2022/01/30 09:27:37;;;;;;;14.60;3.25;;;;;;;5.36;100.00;100665.09;4937159;29;20035;-82
2022/01/30 09:30:05;;;;;;;13.57;2.70;;;;;;;5.36;100.00;100665.91;4940778;29;20031;-83
2022/01/30 09:32:30;;;;;;;10.35;2.72;;;;;;;5.29;100.00;100655.13;4927508;29;20027;-83
2022/01/30 09:35:02;;;;;;;12.23;2.45;;;;;;;5.46;100.00;100642.56;4940413;29;20059;-82
2022/01/30 09:37:28;;;;;;;12.13;2.80;;;;;;;5.52;100.00;100652.53;4943879;29;20055;-82
2022/01/30 09:39:54;;;;;;;12.23;2.38;;;;;;;5.52;100.00;100636.91;4927852;29;20434;-83
2022/01/30 09:42:23;;;;;;;14.65;3.20;;;;;;;5.55;100.00;100639.25;4932209;29;20254;-84
2022/01/30 09:44:50;;;;;;;12.98;2.10;;;;;;;5.61;100.00;100643.16;4927079;29;20038;-82
2022/01/30 09:47:17;;;;;;;12.63;2.95;;;;;;;5.70;100.00;100639.81;4921373;29;20028;-83
2022/01/30 09:49:49;;;;;;;13.82;2.60;;;;;;;5.80;100.00;100629.47;4922271;29;20055;-82
2022/01/30 09:52:15;;;;;;;12.95;1.90;;;;;;;5.92;100.00;100639.88;4941647;29;20039;-83
2022/01/30 09:54:40;;;;;;;11.98;2.20;;;;;;;5.79;100.00;100635.63;4927699;29;20042;-84
2022/01/30 09:57:06;;;;;;;20.02;3.55;;;;;;;5.89;100.00;100616.63;4945705;29;20382;-82
2022/01/30 09:59:33;;;;;;;13.57;2.20;;;;;;;5.99;100.00;100617.56;4920532;29;20039;-83
2022/01/30 10:02:07;;;;;;;13.35;3.10;;;;;;;6.09;100.00;100623.72;4928164;29;20090;-82
2022/01/30 10:04:34;;;;;;;15.07;2.58;;;;;;;6.02;100.00;100612.13;4928519;29;20090;-84
2022/01/30 10:07:07;;;;;;;15.93;2.90;;;;;;;6.19;100.00;100625.53;4923638;29;20070;-83
2022/01/30 10:09:36;;;;;;;12.20;2.30;;;;;;;6.24;100.00;100619.00;4939647;29;20478;-83
2022/01/30 10:12:13;;;;;;;18.27;2.58;;;;;;;6.28;100.00;100617.78;4939953;29;20119;-82
2022/01/30 10:15:03;;;;;;;17.60;3.25;;;;;;;6.18;100.00;100608.25;4923366;29;20055;-82
2022/01/30 10:17:49;;;;;;;9.38;2.47;;;;;;;6.18;100.00;100605.63;4909512;29;20067;-82
2022/01/30 10:20:25;;;;;;;10.75;2.22;;;;;;;6.34;100.00;100610.41;4927167;29;20547;-82
2022/01/30 10:22:55;;;;;;;21.30;5.95;;;;;;;6.29;100.00;100608.19;4929624;29;20540;-82
2022/01/30 10:25:33;;;;;;;18.63;7.25;;;;;;;6.11;100.00;100605.31;4941026;29;20043;-83
2022/01/30 10:28:12;;;;;;;21.00;6.18;;;;;;;6.20;100.00;100603.72;4918685;29;20047;-82
2022/01/30 10:30:52;;;;;;;27.80;7.65;;;;;;;6.27;100.00;100600.50;4940291;29;20454;-83
2022/01/30 10:33:21;;;;;;;19.45;4.97;;;;;;;6.32;100.00;100607.94;4913252;29;20031;-82
2022/01/30 10:35:59;;;;;;;18.40;4.45;;;;;;;6.07;100.00;100588.28;4910036;29;20034;-82
2022/01/30 10:38:28;;;;;;;20.52;4.07;;;;;;;6.09;100.00;100587.22;4938716;29;20027;-82
2022/01/30 10:40:56;;;;;;;12.73;3.38;;;;;;;6.06;100.00;100584.84;4912911;29;20067;-81
2022/01/30 10:43:22;;;;;;;25.13;4.40;;;;;;;6.25;100.00;100591.13;4910923;29;20040;-82
2022/01/30 10:45:48;;;;;;;22.92;4.25;;;;;;;6.19;100.00;100586.44;4926435;29;20028;-83
2022/01/30 10:48:17;;;;;;;24.33;4.13;;;;;;;6.05;100.00;100572.75;4934974;29;20553;-83
2022/01/30 10:50:46;;;;;;;20.60;4.57;;;;;;;6.26;100.00;100577.97;4926993;29;20028;-83
2022/01/30 10:53:21;;;;;;;21.15;5.95;;;;;;;6.18;100.00;100561.31;4925290;29;20069;-83
2022/01/30 10:55:48;;;;;;;30.13;6.15;;;;;;;6.33;100.00;100562.66;4927550;29;20031;-84
2022/01/30 10:58:20;;;;;;;21.40;6.40;;;;;;;6.26;100.00;100533.66;4923997;29;20035;-83
2022/01/30 11:00:51;;;;;;;24.70;5.45;;;;;;;6.18;100.00;100533.44;4943876;29;20039;-82
2022/01/30 11:03:45;;;;;;;22.20;4.45;;;;;;;6.31;100.00;100532.44;4944406;29;20031;-83
2022/01/30 11:06:14;;;;;;;28.88;4.93;;;;;;;6.35;100.00;100529.44;4928571;29;20073;-82
2022/01/30 11:08:44;;;;;;;29.00;6.63;;;;;;;6.41;100.00;100530.72;4925139;29;20051;-83
2022/01/30 11:14:16;;;;;;;24.85;4.90;;;;;;;6.47;100.00;100521.50;4921153;29;20043;-83
2022/01/30 11:19:27;;;;;;;21.05;5.13;;;;;;;6.51;100.00;100517.72;4932255;29;20038;-83
2022/01/30 11:22:02;;;;;;;31.35;4.60;;;;;;;6.42;100.00;100516.72;4915980;29;20482;-83
2022/01/30 11:24:28;;;;;;;22.65;4.15;;;;;;;6.38;100.00;100517.91;4923282;29;20031;-83
2022/01/30 11:26:54;;;;;;;22.77;5.25;;;;;;;6.50;100.00;100518.66;4912044;29;20049;-82
2022/01/30 11:29:21;;;;;;;19.60;4.28;;;;;;;6.65;100.00;100519.94;4905799;29;20047;-82
2022/01/30 11:31:47;;;;;;;27.00;4.95;;;;;;;6.48;100.00;100494.47;4920297;29;20037;-83
2022/01/30 11:34:22;;;;;;;22.13;3.90;;;;;;;6.71;100.00;100501.16;4939975;29;20067;-83
2022/01/30 11:36:49;;;;;;;22.98;4.32;;;;;;;6.54;100.00;100484.34;4919261;29;20043;-82
2022/01/30 11:39:19;;;;;;;26.23;4.25;;;;;;;6.95;100.00;100468.66;4911434;29;20024;-82
2022/01/30 11:42:15;;;;;;;19.95;4.97;;;;;;;7.12;100.00;100476.78;4928022;29;20482;-83
2022/01/30 11:45:00;;;;;;;26.95;3.92;;;;;;;7.22;100.00;100458.50;4912073;29;20402;-82
2022/01/30 11:47:25;;;;;;;18.50;4.30;;;;;;;7.20;100.00;100449.97;4916665;29;20024;-84
2022/01/30 11:50:00;;;;;;;25.42;4.80;;;;;;;7.23;100.00;100453.13;4907304;29;20509;-82
2022/01/30 11:52:47;;;;;;;22.40;3.90;;;;;;;7.51;100.00;100455.88;4926167;29;20055;-83
2022/01/30 11:55:38;;;;;;;24.38;4.85;;;;;;;7.49;100.00;100449.97;4912182;29;20096;-83
2022/01/30 11:58:04;;;;;;;19.42;4.30;;;;;;;7.77;100.00;100442.19;4918630;29;20090;-83
2022/01/30 12:00:38;;;;;;;24.20;4.90;;;;;;;8.02;100.00;100445.16;4913033;29;20398;-82
2022/01/30 12:03:28;;;;;;;16.80;3.53;;;;;;;8.09;100.00;100441.03;4909501;29;20039;-84
2022/01/30 12:05:56;;;;;;;21.33;4.50;;;;;;;8.10;100.00;100436.59;4914934;29;20471;-83
2022/01/30 12:08:46;;;;;;;21.25;4.43;;;;;;;8.32;100.00;100419.72;4925099;29;20119;-84
2022/01/30 12:11:33;;;;;;;25.17;4.97;;;;;;;7.85;100.00;100421.41;4909085;29;20486;-83
2022/01/30 12:14:03;;;;;;;19.95;4.25;;;;;;;7.75;100.00;100407.53;4904825;29;20059;-83